createdAt,value
2018-11-05T00:00:06.215Z,26.70
2018-11-05T00:01:06.227Z,26.60
2018-11-05T00:02:06.237Z,27.20
2018-11-05T00:03:06.261Z,26.40
2018-11-05T00:05:06.270Z,26.40
2018-11-05T00:06:06.281Z,26.30
2018-11-05T00:07:06.293Z,26.80
2018-11-05T00:08:06.333Z,26.60
2018-11-05T00:09:06.314Z,25.50
2018-11-05T00:10:06.353Z,29.50
2018-11-05T00:11:06.334Z,28.90
2018-11-05T00:12:06.345Z,25.30
2018-11-05T00:13:06.355Z,26.90
2018-11-05T00:14:06.368Z,26.60
2018-11-05T00:15:06.428Z,25.80
2018-11-05T00:16:06.388Z,28.50
2018-11-05T00:17:06.399Z,28.60
2018-11-05T00:18:06.409Z,26.80
2018-11-05T00:19:06.421Z,29.30
2018-11-05T00:20:06.430Z,29.40
2018-11-05T00:21:06.443Z,26.80
2018-11-05T00:22:06.453Z,29.20
2018-11-05T00:23:06.465Z,29.50
2018-11-05T00:24:06.478Z,26.00
2018-11-05T00:25:06.543Z,27.00
2018-11-05T00:26:06.573Z,28.80
2018-11-05T00:27:06.514Z,27.70
2018-11-05T00:28:06.518Z,28.70
2018-11-05T00:29:06.528Z,28.50
2018-11-05T00:30:06.540Z,29.30
2018-11-05T00:31:06.551Z,27.30
2018-11-05T00:32:06.560Z,29.00
2018-11-05T00:33:06.579Z,28.70
2018-11-05T00:34:06.745Z,28.90
2018-11-05T00:35:06.863Z,29.40
2018-11-05T00:37:06.614Z,27.50
2018-11-05T00:38:06.627Z,28.90
2018-11-05T00:39:06.638Z,29.20
2018-11-05T00:40:06.647Z,28.20
2018-11-05T00:41:06.656Z,30.80
2018-11-05T00:42:06.671Z,29.70
2018-11-05T00:43:06.678Z,27.60
2018-11-05T00:44:06.691Z,30.50
2018-11-05T00:45:06.705Z,27.50
2018-11-05T00:46:06.713Z,32.50
2018-11-05T00:47:06.721Z,30.80
2018-11-05T00:48:06.731Z,32.00
2018-11-05T00:49:06.747Z,30.20
2018-11-05T00:50:06.755Z,29.70
2018-11-05T00:51:06.766Z,29.50
2018-11-05T00:52:06.777Z,31.60
2018-11-05T00:53:06.785Z,29.60
2018-11-05T00:54:06.799Z,29.30
2018-11-05T00:55:06.811Z,31.60
2018-11-05T00:56:06.817Z,31.30
2018-11-05T00:57:06.855Z,31.50
2018-11-05T00:58:06.840Z,29.70
2018-11-05T00:59:06.850Z,27.70
2018-11-05T01:00:06.861Z,30.50
2018-11-05T01:01:06.870Z,30.40
2018-11-05T01:02:06.882Z,31.20
2018-11-05T01:03:06.892Z,32.80
2018-11-05T01:04:06.904Z,32.40
2018-11-05T01:05:06.914Z,31.40
2018-11-05T01:06:06.927Z,34.80
2018-11-05T01:07:06.935Z,31.80
2018-11-05T01:08:06.947Z,33.00
2018-11-05T01:09:06.983Z,34.20
2018-11-05T01:10:06.969Z,32.80
2018-11-05T01:11:06.984Z,32.40
2018-11-05T01:12:06.989Z,32.20
2018-11-05T01:13:07.002Z,33.70
2018-11-05T01:14:07.009Z,32.80
2018-11-05T01:15:07.040Z,33.20
2018-11-05T01:16:07.035Z,34.10
2018-11-05T01:17:07.043Z,31.70
2018-11-05T01:18:07.055Z,36.20
2018-11-05T01:19:07.074Z,33.30
2018-11-05T01:20:07.074Z,30.80
2018-11-05T01:21:07.114Z,32.30
2018-11-05T01:22:07.139Z,33.10
2018-11-05T01:23:07.112Z,34.50
2018-11-05T01:24:07.117Z,35.30
2018-11-05T01:25:07.127Z,33.10
2018-11-05T01:26:07.137Z,33.70
2018-11-05T01:27:07.146Z,36.40
2018-11-05T01:28:07.159Z,33.00
2018-11-05T01:29:07.213Z,33.60
2018-11-05T01:30:07.240Z,35.20
2018-11-05T01:31:07.189Z,34.10
2018-11-05T01:32:07.211Z,32.40
2018-11-05T01:33:07.210Z,31.10
2018-11-05T01:34:07.235Z,32.50
2018-11-05T01:35:07.232Z,33.70
2018-11-05T01:36:07.242Z,33.50
2018-11-05T01:37:07.268Z,32.10
2018-11-05T01:38:07.263Z,32.00
2018-11-05T01:39:07.326Z,34.00
2018-11-05T01:40:07.496Z,35.70
2018-11-05T01:42:07.804Z,33.10
2018-11-05T01:43:07.927Z,33.10
2018-11-05T01:44:07.328Z,30.80
2018-11-05T01:45:07.339Z,32.90
2018-11-05T01:46:07.347Z,34.50
2018-11-05T01:47:07.358Z,33.70
2018-11-05T01:48:07.368Z,31.80
2018-11-05T01:49:07.380Z,35.10
2018-11-05T01:50:07.388Z,32.20
2018-11-05T01:51:07.402Z,33.40
2018-11-05T01:52:07.409Z,34.70
2018-11-05T01:53:07.420Z,31.60
2018-11-05T01:54:07.433Z,33.50
2018-11-05T01:55:07.450Z,31.90
2018-11-05T01:56:07.461Z,32.40
2018-11-05T01:57:07.469Z,31.40
2018-11-05T01:58:07.472Z,34.20
2018-11-05T01:59:07.489Z,33.30
2018-11-05T02:00:07.498Z,34.80
2018-11-05T02:01:07.504Z,33.30
2018-11-05T02:02:07.515Z,34.40
2018-11-05T02:03:07.526Z,32.80
2018-11-05T02:04:07.536Z,33.00
2018-11-05T02:05:07.545Z,32.70
2018-11-05T02:06:07.558Z,33.50
2018-11-05T02:07:07.587Z,33.90
2018-11-05T02:08:07.637Z,33.20
2018-11-05T02:09:07.690Z,32.60
2018-11-05T02:10:07.665Z,32.10
2018-11-05T02:11:07.609Z,32.50
2018-11-05T02:13:08.179Z,33.50
2018-11-05T02:14:07.641Z,33.50
2018-11-05T02:15:07.654Z,32.30
2018-11-05T02:16:07.757Z,34.20
2018-11-05T02:17:07.673Z,33.50
2018-11-05T02:18:07.692Z,33.60
2018-11-05T02:19:07.693Z,37.60
2018-11-05T02:20:07.704Z,37.80
2018-11-05T02:21:07.715Z,34.30
2018-11-05T02:22:07.727Z,36.00
2018-11-05T02:23:07.735Z,32.60
2018-11-05T02:24:07.747Z,35.40
2018-11-05T02:25:07.758Z,35.90
2018-11-05T02:26:07.770Z,36.50
2018-11-05T02:27:07.849Z,34.20
2018-11-05T02:28:07.788Z,35.90
2018-11-05T02:29:07.800Z,33.80
2018-11-05T02:30:07.822Z,33.90
2018-11-05T02:31:07.822Z,37.90
2018-11-05T02:32:07.830Z,33.50
2018-11-05T02:33:07.843Z,34.40
2018-11-05T02:34:08.071Z,34.70
2018-11-05T02:35:07.873Z,35.40
2018-11-05T02:36:07.877Z,34.20
2018-11-05T02:37:07.918Z,33.30
2018-11-05T02:38:07.910Z,32.00
2018-11-05T02:39:07.904Z,34.50
2018-11-05T02:40:07.915Z,32.20
2018-11-05T02:41:07.926Z,35.00
2018-11-05T02:42:07.937Z,31.60
2018-11-05T02:43:07.960Z,30.70
2018-11-05T02:44:08.015Z,33.40
2018-11-05T02:45:08.070Z,34.70
2018-11-05T02:46:08.082Z,32.60
2018-11-05T02:47:08.388Z,33.60
2018-11-05T02:48:08.564Z,34.40
2018-11-05T02:49:08.008Z,32.60
2018-11-05T02:50:08.025Z,31.20
2018-11-05T02:51:08.030Z,30.20
2018-11-05T02:52:08.043Z,31.70
2018-11-05T02:53:08.082Z,33.30
2018-11-05T02:54:08.063Z,31.60
2018-11-05T02:55:08.073Z,32.10
2018-11-05T02:56:08.084Z,33.00
2018-11-05T02:57:08.100Z,36.10
2018-11-05T02:58:08.104Z,33.70
2018-11-05T02:59:08.137Z,32.80
2018-11-05T03:00:08.126Z,32.30
2018-11-05T03:01:08.137Z,33.90
2018-11-05T03:02:08.145Z,32.40
2018-11-05T03:03:08.242Z,32.10
2018-11-05T03:04:08.169Z,30.70
2018-11-05T03:05:08.181Z,34.40
2018-11-05T03:06:08.509Z,32.80
2018-11-05T03:07:08.201Z,31.30
2018-11-05T03:08:08.209Z,32.70
2018-11-05T03:09:08.224Z,31.40
2018-11-05T03:10:08.231Z,30.10
2018-11-05T03:11:08.242Z,29.30
2018-11-05T03:12:08.256Z,30.50
2018-11-05T03:13:08.261Z,31.90
2018-11-05T03:14:08.379Z,30.00
2018-11-05T03:15:08.290Z,32.90
2018-11-05T03:16:08.347Z,31.20
2018-11-05T03:17:09.039Z,30.70
2018-11-05T03:18:08.317Z,31.50
2018-11-05T03:19:08.329Z,31.30
2018-11-05T03:20:08.339Z,30.20
2018-11-05T03:21:08.347Z,32.40
2018-11-05T03:22:08.356Z,32.90
2018-11-05T03:23:08.367Z,32.10
2018-11-05T03:24:08.378Z,32.60
2018-11-05T03:25:08.389Z,33.60
2018-11-05T03:26:08.401Z,33.30
2018-11-05T03:27:08.412Z,31.60
2018-11-05T03:28:08.418Z,28.90
2018-11-05T03:29:08.433Z,31.00
2018-11-05T03:30:08.443Z,33.40
2018-11-05T03:31:08.451Z,32.50
2018-11-05T03:32:08.466Z,30.70
2018-11-05T03:33:08.470Z,30.30
2018-11-05T03:34:08.485Z,32.00
2018-11-05T03:35:08.492Z,32.60
2018-11-05T03:36:08.509Z,32.40
2018-11-05T03:37:08.523Z,31.10
2018-11-05T03:38:08.525Z,29.80
2018-11-05T03:39:08.536Z,30.10
2018-11-05T03:40:08.546Z,35.50
2018-11-05T03:41:08.562Z,31.20
2018-11-05T03:42:08.574Z,31.40
2018-11-05T03:43:08.588Z,31.80
2018-11-05T03:44:08.597Z,33.20
2018-11-05T03:45:08.705Z,31.40
2018-11-05T03:49:08.694Z,30.40
2018-11-05T03:50:08.652Z,33.40
2018-11-05T03:51:08.664Z,33.90
2018-11-05T03:52:08.674Z,30.70
2018-11-05T03:53:08.684Z,32.40
2018-11-05T03:54:08.704Z,32.40
2018-11-05T03:55:08.708Z,31.70
2018-11-05T03:56:08.874Z,34.40
2018-11-05T03:57:08.727Z,32.90
2018-11-05T03:58:08.737Z,35.30
2018-11-05T03:59:08.743Z,29.20
2018-11-05T04:00:08.756Z,32.60
2018-11-05T04:01:08.811Z,32.00
2018-11-05T04:02:08.778Z,33.20
2018-11-05T04:03:08.869Z,32.80
2018-11-05T04:04:08.803Z,30.50
2018-11-05T04:05:08.808Z,29.80
2018-11-05T04:06:08.838Z,30.90
2018-11-05T04:07:08.846Z,33.30
2018-11-05T04:08:08.896Z,32.30
2018-11-05T04:09:08.863Z,29.00
2018-11-05T04:10:08.863Z,35.10
2018-11-05T04:11:08.879Z,33.20
2018-11-05T04:12:08.882Z,31.70
2018-11-05T04:13:08.895Z,31.50
2018-11-05T04:14:08.909Z,31.10
2018-11-05T04:15:08.919Z,32.20
2018-11-05T04:16:08.952Z,31.60
2018-11-05T04:18:08.945Z,31.80
2018-11-05T04:19:08.959Z,30.60
2018-11-05T04:20:08.968Z,29.50
2018-11-05T04:21:08.982Z,31.10
2018-11-05T04:22:08.987Z,30.90
2018-11-05T04:23:08.997Z,31.20
2018-11-05T04:24:09.006Z,31.90
2018-11-05T04:25:09.024Z,31.10
2018-11-05T04:26:09.027Z,27.30
2018-11-05T04:27:09.038Z,33.30
2018-11-05T04:28:09.049Z,31.80
2018-11-05T04:29:09.110Z,29.60
2018-11-05T04:30:09.073Z,31.80
2018-11-05T04:31:09.082Z,31.20
2018-11-05T04:32:09.094Z,35.40
2018-11-05T04:33:09.109Z,34.00
2018-11-05T04:34:09.125Z,32.30
2018-11-05T04:35:09.121Z,33.70
2018-11-05T04:36:09.140Z,31.90
2018-11-05T04:37:09.145Z,31.70
2018-11-05T04:38:09.155Z,31.80
2018-11-05T04:39:09.167Z,28.80
2018-11-05T04:40:09.178Z,31.80
2018-11-05T04:41:09.187Z,30.10
2018-11-05T04:42:09.200Z,31.70
2018-11-05T04:43:09.207Z,31.80
2018-11-05T04:44:09.216Z,35.20
2018-11-05T04:45:09.229Z,32.10
2018-11-05T04:46:09.238Z,31.20
2018-11-05T04:48:09.874Z,33.50
2018-11-05T04:49:09.959Z,33.50
2018-11-05T04:50:09.286Z,31.20
2018-11-05T04:51:09.290Z,33.60
2018-11-05T04:52:09.301Z,34.50
2018-11-05T04:53:09.334Z,33.70
2018-11-05T04:54:09.325Z,34.40
2018-11-05T04:55:09.335Z,35.90
2018-11-05T04:56:09.347Z,36.20
2018-11-05T04:57:09.355Z,33.60
2018-11-05T04:58:09.420Z,34.20
2018-11-05T04:59:09.389Z,35.10
2018-11-05T05:00:09.386Z,38.20
2018-11-05T05:01:09.401Z,37.50
2018-11-05T05:02:09.408Z,37.80
2018-11-05T05:03:09.424Z,37.80
2018-11-05T05:04:09.448Z,39.50
2018-11-05T05:05:09.462Z,41.50
2018-11-05T05:06:09.457Z,41.30
2018-11-05T05:07:09.460Z,40.10
2018-11-05T05:08:09.473Z,40.40
2018-11-05T05:09:09.489Z,38.20
2018-11-05T05:10:09.493Z,42.80
2018-11-05T05:11:09.566Z,45.30
2018-11-05T05:12:09.519Z,40.20
2018-11-05T05:13:09.526Z,43.30
2018-11-05T05:14:09.532Z,42.00
2018-11-05T05:15:09.543Z,41.10
2018-11-05T05:16:09.564Z,45.30
2018-11-05T05:17:09.564Z,42.40
2018-11-05T05:19:09.709Z,40.40
2018-11-05T05:21:09.667Z,42.80
2018-11-05T05:22:09.618Z,41.50
2018-11-05T05:23:09.786Z,45.70
2018-11-05T05:24:09.645Z,38.90
2018-11-05T05:25:09.648Z,46.60
2018-11-05T05:26:09.659Z,43.50
2018-11-05T05:27:09.668Z,49.10
2018-11-05T05:28:09.679Z,45.90
2018-11-05T05:29:09.693Z,45.00
2018-11-05T05:30:09.792Z,45.20
2018-11-05T05:31:09.728Z,40.70
2018-11-05T05:32:09.738Z,43.80
2018-11-05T05:33:09.834Z,44.10
2018-11-05T05:34:09.742Z,42.70
2018-11-05T05:35:09.752Z,40.90
2018-11-05T05:36:09.764Z,44.50
2018-11-05T05:37:09.779Z,38.90
2018-11-05T05:38:09.797Z,43.80
2018-11-05T05:39:09.793Z,42.40
2018-11-05T05:40:09.806Z,43.90
2018-11-05T05:41:09.871Z,42.20
2018-11-05T05:42:10.102Z,39.40
2018-11-05T05:44:09.861Z,43.10
2018-11-05T05:45:09.858Z,45.50
2018-11-05T05:46:09.871Z,44.50
2018-11-05T05:47:09.881Z,44.00
2018-11-05T05:48:10.383Z,48.60
2018-11-05T05:50:09.998Z,48.10
2018-11-05T05:52:09.953Z,44.20
2018-11-05T05:53:09.999Z,42.60
2018-11-05T05:54:09.974Z,45.00
2018-11-05T05:55:09.998Z,43.70
2018-11-05T05:56:09.988Z,43.50
2018-11-05T05:57:09.993Z,46.40
2018-11-05T05:58:09.993Z,41.20
2018-11-05T05:59:10.006Z,43.30
2018-11-05T06:00:10.026Z,42.20
2018-11-05T06:01:10.031Z,43.60
2018-11-05T06:02:10.046Z,46.00
2018-11-05T06:03:10.044Z,44.40
2018-11-05T06:04:10.055Z,40.70
2018-11-05T06:05:10.068Z,43.20
2018-11-05T06:06:10.186Z,41.10
2018-11-05T06:07:10.090Z,42.60
2018-11-05T06:08:10.482Z,41.90
2018-11-05T06:10:10.119Z,44.10
2018-11-05T06:11:10.130Z,43.90
2018-11-05T06:12:10.136Z,39.70
2018-11-05T06:13:10.171Z,43.90
2018-11-05T06:14:10.167Z,39.60
2018-11-05T06:15:10.169Z,41.40
2018-11-05T06:16:10.199Z,39.10
2018-11-05T06:17:10.206Z,38.60
2018-11-05T06:18:10.211Z,45.00
2018-11-05T06:19:10.283Z,38.90
2018-11-05T06:20:10.325Z,39.30
2018-11-05T06:21:10.285Z,39.70
2018-11-05T06:22:10.252Z,42.60
2018-11-05T06:23:10.255Z,43.60
2018-11-05T06:24:10.257Z,46.50
2018-11-05T06:25:10.271Z,43.50
2018-11-05T06:26:10.282Z,46.60
2018-11-05T06:27:10.288Z,42.00
2018-11-05T06:28:10.298Z,41.50
2018-11-05T06:29:10.328Z,48.10
2018-11-05T06:30:10.324Z,41.90
2018-11-05T06:31:10.331Z,46.50
2018-11-05T06:32:10.348Z,42.20
2018-11-05T06:33:10.358Z,41.00
2018-11-05T06:34:10.364Z,44.40
2018-11-05T06:35:10.421Z,43.40
2018-11-05T06:36:10.402Z,44.80
2018-11-05T06:37:10.396Z,47.90
2018-11-05T06:38:10.414Z,44.70
2018-11-05T06:39:10.428Z,44.30
2018-11-05T06:40:10.428Z,43.70
2018-11-05T06:41:10.520Z,46.10
2018-11-05T06:42:10.449Z,44.60
2018-11-05T06:43:10.460Z,41.80
2018-11-05T06:44:10.531Z,46.90
2018-11-05T06:45:10.494Z,46.10
2018-11-05T06:46:10.891Z,45.70
2018-11-05T06:47:10.501Z,44.00
2018-11-05T06:48:10.515Z,44.10
2018-11-05T06:49:10.536Z,46.70
2018-11-05T06:50:10.705Z,46.20
2018-11-05T06:51:10.545Z,45.50
2018-11-05T06:53:10.569Z,49.70
2018-11-05T06:54:10.579Z,45.20
2018-11-05T06:55:10.590Z,47.10
2018-11-05T06:56:10.599Z,45.00
2018-11-05T06:57:10.611Z,46.90
2018-11-05T06:58:10.628Z,43.50
2018-11-05T06:59:10.634Z,44.80
2018-11-05T07:00:10.642Z,47.20
2018-11-05T07:01:10.658Z,47.50
2018-11-05T07:02:10.665Z,47.00
2018-11-05T07:03:11.347Z,46.80
2018-11-05T07:04:10.688Z,48.20
2018-11-05T07:05:10.697Z,46.50
2018-11-05T07:06:10.719Z,49.70
2018-11-05T07:07:10.723Z,46.60
2018-11-05T07:08:10.732Z,45.60
2018-11-05T07:09:10.745Z,43.60
2018-11-05T07:10:10.751Z,48.80
2018-11-05T07:11:10.782Z,46.70
2018-11-05T07:12:10.936Z,46.00
2018-11-05T07:13:10.833Z,43.90
2018-11-05T07:14:10.816Z,48.60
2018-11-05T07:15:10.807Z,48.20
2018-11-05T07:16:10.838Z,48.00
2018-11-05T07:17:10.827Z,46.30
2018-11-05T07:18:11.166Z,48.80
2018-11-05T07:19:11.190Z,49.80
2018-11-05T07:20:10.861Z,47.70
2018-11-05T07:21:10.927Z,45.10
2018-11-05T07:22:11.485Z,43.30
2018-11-05T07:25:12.205Z,47.90
2018-11-05T07:27:10.994Z,50.40
2018-11-05T07:28:10.949Z,47.90
2018-11-05T07:29:11.061Z,45.30
2018-11-05T07:30:10.980Z,45.60
2018-11-05T07:31:11.310Z,52.90
2018-11-05T07:32:11.253Z,46.70
2018-11-05T07:33:11.072Z,50.10
2018-11-05T07:34:11.492Z,48.70
2018-11-05T07:35:11.031Z,47.00
2018-11-05T07:36:11.039Z,48.00
2018-11-05T07:37:11.063Z,47.70
2018-11-05T07:38:11.074Z,44.00
2018-11-05T07:39:11.079Z,49.30
2018-11-05T07:40:11.086Z,48.00
2018-11-05T07:41:11.099Z,46.40
2018-11-05T07:42:11.585Z,45.70
2018-11-05T07:43:11.184Z,44.30
2018-11-05T07:44:11.136Z,46.10
2018-11-05T07:46:11.168Z,46.30
2018-11-05T07:47:11.167Z,44.30
2018-11-05T07:48:11.413Z,45.70
2018-11-05T07:49:11.189Z,47.80
2018-11-05T07:50:11.258Z,46.80
2018-11-05T07:51:11.213Z,45.10
2018-11-05T07:52:11.237Z,46.60
2018-11-05T07:53:11.235Z,46.30
2018-11-05T07:54:11.244Z,45.20
2018-11-05T07:56:11.586Z,45.70
2018-11-05T07:57:11.485Z,45.50
2018-11-05T07:58:11.383Z,47.00
2018-11-05T07:59:11.364Z,52.30
2018-11-05T08:00:11.321Z,47.40
2018-11-05T08:01:11.342Z,50.60
2018-11-05T08:02:12.363Z,46.60
2018-11-05T08:04:11.350Z,45.40
2018-11-05T08:05:11.363Z,47.10
2018-11-05T08:06:11.376Z,48.80
2018-11-05T08:07:12.575Z,47.10
2018-11-05T08:08:11.413Z,46.90
2018-11-05T08:09:12.035Z,45.50
2018-11-05T08:10:11.421Z,45.20
2018-11-05T08:11:11.507Z,51.30
2018-11-05T08:12:11.825Z,47.50
2018-11-05T08:13:12.151Z,46.30
2018-11-05T08:14:11.484Z,45.40
2018-11-05T08:15:11.496Z,46.40
2018-11-05T08:16:11.690Z,45.80
2018-11-05T08:17:11.501Z,45.90
2018-11-05T08:18:11.511Z,48.90
2018-11-05T08:19:11.525Z,46.40
2018-11-05T08:20:11.535Z,45.90
2018-11-05T08:21:11.547Z,45.80
2018-11-05T08:22:11.557Z,49.00
2018-11-05T08:23:11.577Z,46.60
2018-11-05T08:24:11.616Z,47.10
2018-11-05T08:25:11.705Z,44.60
2018-11-05T08:27:11.619Z,45.70
2018-11-05T08:29:12.064Z,44.40
2018-11-05T08:31:12.023Z,42.70
2018-11-05T08:32:11.676Z,43.50
2018-11-05T08:33:11.687Z,41.80
2018-11-05T08:34:11.757Z,45.00
2018-11-05T08:35:11.717Z,42.80
2018-11-05T08:36:11.719Z,40.30
2018-11-05T08:37:11.732Z,44.20
2018-11-05T08:38:11.741Z,44.60
2018-11-05T08:39:11.758Z,44.10
2018-11-05T08:40:11.856Z,43.60
2018-11-05T08:41:11.781Z,43.70
2018-11-05T08:42:11.789Z,43.50
2018-11-05T08:43:11.798Z,42.00
2018-11-05T08:44:11.969Z,40.30
2018-11-05T08:45:11.849Z,40.00
2018-11-05T08:46:11.835Z,38.80
2018-11-05T08:47:11.847Z,37.80
2018-11-05T08:48:11.858Z,38.20
2018-11-05T08:49:11.874Z,40.00
2018-11-05T08:50:11.975Z,37.30
2018-11-05T08:51:12.057Z,41.30
2018-11-05T08:52:11.908Z,39.50
2018-11-05T08:53:11.920Z,39.30
2018-11-05T08:54:12.024Z,37.80
2018-11-05T08:55:11.964Z,36.70
2018-11-05T08:57:11.972Z,38.40
2018-11-05T08:58:11.980Z,36.10
2018-11-05T09:01:12.074Z,35.20
2018-11-05T09:02:12.383Z,35.10
2018-11-05T09:03:12.524Z,35.50
2018-11-05T09:04:12.052Z,37.30
2018-11-05T09:05:12.192Z,38.10
2018-11-05T09:06:12.082Z,35.30
2018-11-05T09:07:12.096Z,36.40
2018-11-05T09:08:12.100Z,35.90
2018-11-05T09:09:12.116Z,35.30
2018-11-05T09:10:12.237Z,37.30
2018-11-05T09:11:12.462Z,34.00
2018-11-05T09:12:12.269Z,36.40
2018-11-05T09:13:12.162Z,34.90
2018-11-05T09:14:12.179Z,36.00
2018-11-05T09:15:12.236Z,40.00
2018-11-05T09:16:12.430Z,35.90
2018-11-05T09:17:12.238Z,35.90
2018-11-05T09:18:12.365Z,34.60
2018-11-05T09:19:12.263Z,38.40
2018-11-05T09:20:12.258Z,34.80
2018-11-05T09:21:12.262Z,35.50
2018-11-05T09:22:12.278Z,30.60
2018-11-05T09:23:12.347Z,32.40
2018-11-05T09:24:12.545Z,31.30
2018-11-05T09:25:12.317Z,30.70
2018-11-05T09:26:12.330Z,32.60
2018-11-05T09:27:12.337Z,29.00
2018-11-05T09:28:12.347Z,30.90
2018-11-05T09:29:12.359Z,31.10
2018-11-05T09:30:12.428Z,28.30
2018-11-05T09:31:12.382Z,30.80
2018-11-05T09:32:12.399Z,28.80
2018-11-05T09:33:12.412Z,29.20
2018-11-05T09:34:12.424Z,29.10
2018-11-05T09:35:12.452Z,30.70
2018-11-05T09:36:12.447Z,31.00
2018-11-05T09:37:12.949Z,30.00
2018-11-05T09:38:12.717Z,32.70
2018-11-05T09:39:12.480Z,29.90
2018-11-05T09:40:12.559Z,29.10
2018-11-05T09:41:12.509Z,29.70
2018-11-05T09:42:12.518Z,31.20
2018-11-05T09:43:12.533Z,29.10
2018-11-05T09:44:12.544Z,30.50
2018-11-05T09:45:12.573Z,27.30
2018-11-05T09:46:12.578Z,28.90
2018-11-05T09:47:13.055Z,30.20
2018-11-05T09:48:12.597Z,29.30
2018-11-05T09:49:12.608Z,27.30
2018-11-05T09:50:12.625Z,27.70
2018-11-05T09:51:12.638Z,24.80
2018-11-05T09:52:13.409Z,26.40
2018-11-05T09:53:12.721Z,28.80
2018-11-05T09:54:12.673Z,29.10
2018-11-05T09:55:12.679Z,27.80
2018-11-05T09:56:12.692Z,25.80
2018-11-05T09:57:12.711Z,26.10
2018-11-05T09:58:14.006Z,24.50
2018-11-05T10:00:12.767Z,25.40
2018-11-05T10:01:13.046Z,23.60
2018-11-05T10:03:13.319Z,24.10
2018-11-05T10:04:12.960Z,25.30
2018-11-05T10:05:13.108Z,24.60
2018-11-05T10:06:12.807Z,23.50
2018-11-05T10:07:12.820Z,24.10
2018-11-05T10:08:12.836Z,26.10
2018-11-05T10:09:12.856Z,24.80
2018-11-05T10:10:12.889Z,23.50
2018-11-05T10:11:12.882Z,22.40
2018-11-05T10:12:12.900Z,22.70
2018-11-05T10:13:12.905Z,21.00
2018-11-05T10:14:12.906Z,22.70
2018-11-05T10:15:12.971Z,22.20
2018-11-05T10:16:12.946Z,21.50
2018-11-05T10:17:12.969Z,23.70
2018-11-05T10:18:12.955Z,23.20
2018-11-05T10:19:12.967Z,22.90
2018-11-05T10:20:13.074Z,21.60
2018-11-05T10:21:12.999Z,21.80
2018-11-05T10:22:13.112Z,23.90
2018-11-05T10:23:13.066Z,21.60
2018-11-05T10:24:13.049Z,21.90
2018-11-05T10:25:13.118Z,21.30
2018-11-05T10:26:13.109Z,20.90
2018-11-05T10:27:13.066Z,21.10
2018-11-05T10:28:13.088Z,22.00
2018-11-05T10:29:13.101Z,22.10
2018-11-05T10:30:13.105Z,21.90
2018-11-05T10:31:13.152Z,21.30
2018-11-05T10:32:13.134Z,21.00
2018-11-05T10:33:13.264Z,21.60
2018-11-05T10:34:13.559Z,22.30
2018-11-05T10:35:13.169Z,21.90
2018-11-05T10:36:13.185Z,21.40
2018-11-05T10:37:13.194Z,23.40
2018-11-05T10:38:13.681Z,21.00
2018-11-05T10:40:14.032Z,23.40
2018-11-05T10:41:13.245Z,21.10
2018-11-05T10:42:13.254Z,22.70
2018-11-05T10:43:13.269Z,23.10
2018-11-05T10:44:13.318Z,21.50
2018-11-05T10:45:13.413Z,23.50
2018-11-05T10:46:13.359Z,21.50
2018-11-05T10:47:13.318Z,21.80
2018-11-05T10:48:13.351Z,23.10
2018-11-05T10:49:13.452Z,22.30
2018-11-05T10:50:13.371Z,23.10
2018-11-05T10:51:13.442Z,22.60
2018-11-05T10:52:13.641Z,22.40
2018-11-05T10:53:13.399Z,24.90
2018-11-05T10:54:13.409Z,21.40
2018-11-05T10:55:13.418Z,22.20
2018-11-05T10:56:13.429Z,22.60
2018-11-05T10:57:13.446Z,21.00
2018-11-05T10:58:13.529Z,21.80
2018-11-05T10:59:13.464Z,21.20
2018-11-05T11:00:13.701Z,23.50
2018-11-05T11:01:13.498Z,22.80
2018-11-05T11:02:13.529Z,21.30
2018-11-05T11:03:13.514Z,20.40
2018-11-05T11:04:13.533Z,22.90
2018-11-05T11:05:13.559Z,21.60
2018-11-05T11:06:13.553Z,20.90
2018-11-05T11:07:13.572Z,22.40
2018-11-05T11:08:13.581Z,20.30
2018-11-05T11:09:13.591Z,19.50
2018-11-05T11:10:13.605Z,19.50
2018-11-05T11:11:13.616Z,19.10
2018-11-05T11:12:13.680Z,19.60
2018-11-05T11:13:13.647Z,19.40
2018-11-05T11:14:13.667Z,20.10
2018-11-05T11:15:13.735Z,19.90
2018-11-05T11:16:13.680Z,19.60
2018-11-05T11:17:13.693Z,21.10
2018-11-05T11:18:13.709Z,19.60
2018-11-05T11:19:13.718Z,20.30
2018-11-05T11:20:14.596Z,19.40
2018-11-05T11:21:13.753Z,20.40
2018-11-05T11:22:13.871Z,20.00
2018-11-05T11:23:13.769Z,20.40
2018-11-05T11:24:13.781Z,20.90
2018-11-05T11:25:13.801Z,20.30
2018-11-05T11:26:13.811Z,19.20
2018-11-05T11:27:13.822Z,19.70
2018-11-05T11:28:13.877Z,20.20
2018-11-05T11:29:13.969Z,20.10
2018-11-05T11:30:13.858Z,19.60
2018-11-05T11:31:13.875Z,20.40
2018-11-05T11:32:13.888Z,18.90
2018-11-05T11:33:13.899Z,18.90
2018-11-05T11:34:13.908Z,19.70
2018-11-05T11:35:13.922Z,19.00
2018-11-05T11:36:13.939Z,18.40
2018-11-05T11:37:14.056Z,20.30
2018-11-05T11:38:13.968Z,19.00
2018-11-05T11:39:13.972Z,18.90
2018-11-05T11:40:13.984Z,18.90
2018-11-05T11:41:13.996Z,19.60
2018-11-05T11:42:14.028Z,18.70
2018-11-05T11:43:14.026Z,19.30
2018-11-05T11:44:14.280Z,19.00
2018-11-05T11:45:14.059Z,19.90
2018-11-05T11:46:14.071Z,20.10
2018-11-05T11:47:14.642Z,19.90
2018-11-05T11:48:14.636Z,18.70
2018-11-05T11:49:14.143Z,18.80
2018-11-05T11:50:14.117Z,19.50
2018-11-05T11:51:14.128Z,19.10
2018-11-05T11:52:14.139Z,19.50
2018-11-05T11:53:14.302Z,19.70
2018-11-05T11:54:14.169Z,19.00
2018-11-05T11:55:14.193Z,18.90
2018-11-05T11:56:14.191Z,19.20
2018-11-05T11:57:14.214Z,18.10
2018-11-05T11:58:14.219Z,20.20
2018-11-05T11:59:14.236Z,19.00
2018-11-05T12:00:14.251Z,19.30
2018-11-05T12:01:14.973Z,18.40
2018-11-05T12:02:14.307Z,19.60
2018-11-05T12:03:14.291Z,19.30
2018-11-05T12:04:14.301Z,18.70
2018-11-05T12:05:14.469Z,19.50
2018-11-05T12:06:14.387Z,18.90
2018-11-05T12:07:14.339Z,18.40
2018-11-05T12:08:14.357Z,19.90
2018-11-05T12:09:14.365Z,19.10
2018-11-05T12:10:14.375Z,18.80
2018-11-05T12:11:14.390Z,18.80
2018-11-05T12:12:14.405Z,19.70
2018-11-05T12:13:14.418Z,18.90
2018-11-05T12:14:14.498Z,18.90
2018-11-05T12:16:15.224Z,19.90
2018-11-05T12:17:14.468Z,18.60
2018-11-05T12:18:14.601Z,19.80
2018-11-05T12:20:14.531Z,19.90
2018-11-05T12:21:14.522Z,18.80
2018-11-05T12:22:14.534Z,21.40
2018-11-05T12:23:14.548Z,19.00
2018-11-05T12:24:14.557Z,19.30
2018-11-05T12:25:14.574Z,20.50
2018-11-05T12:26:14.587Z,19.50
2018-11-05T12:27:14.602Z,18.90
2018-11-05T12:28:14.628Z,19.00
2018-11-05T12:29:16.270Z,18.80
2018-11-05T12:30:14.640Z,19.10
2018-11-05T12:31:14.654Z,19.50
2018-11-05T12:32:14.727Z,19.10
2018-11-05T12:33:14.688Z,18.80
2018-11-05T12:34:14.694Z,19.00
2018-11-05T12:35:14.705Z,18.90
2018-11-05T12:36:14.722Z,18.70
2018-11-05T12:37:14.943Z,17.90
2018-11-05T12:38:14.752Z,18.40
2018-11-05T12:39:14.762Z,18.70
2018-11-05T12:40:14.857Z,18.10
2018-11-05T12:41:14.847Z,18.20
2018-11-05T12:42:14.802Z,19.20
2018-11-05T12:43:15.226Z,19.60
2018-11-05T12:44:14.824Z,18.30
2018-11-05T12:45:14.840Z,17.80
2018-11-05T12:46:14.858Z,19.10
2018-11-05T12:47:14.862Z,18.60
2018-11-05T12:48:14.938Z,19.80
2018-11-05T12:49:14.898Z,19.00
2018-11-05T12:50:15.100Z,18.90
2018-11-05T12:51:14.925Z,20.70
2018-11-05T12:52:14.929Z,19.50
2018-11-05T12:53:14.941Z,18.60
2018-11-05T12:54:14.959Z,19.90
2018-11-05T12:55:14.967Z,21.30
2018-11-05T12:56:14.983Z,19.50
2018-11-05T12:57:15.007Z,19.90
2018-11-05T12:58:15.079Z,20.80
2018-11-05T12:59:15.028Z,21.20
2018-11-05T13:00:15.038Z,20.40
2018-11-05T13:02:15.061Z,20.90
2018-11-05T13:03:15.078Z,19.40
2018-11-05T13:04:15.215Z,19.80
2018-11-05T13:05:15.104Z,20.80
2018-11-05T13:06:15.136Z,19.80
2018-11-05T13:07:15.143Z,20.30
2018-11-05T13:08:15.142Z,21.10
2018-11-05T13:09:15.156Z,22.00
2018-11-05T13:10:15.176Z,19.70
2018-11-05T13:11:15.216Z,20.00
2018-11-05T13:12:15.195Z,20.70
2018-11-05T13:13:15.216Z,20.60
2018-11-05T13:14:15.220Z,20.70
2018-11-05T13:16:15.253Z,19.00
2018-11-05T13:17:15.263Z,19.30
2018-11-05T13:18:15.278Z,19.10
2018-11-05T13:19:15.291Z,18.90
2018-11-05T13:20:15.301Z,19.50
2018-11-05T13:21:15.314Z,19.60
2018-11-05T13:22:15.377Z,19.20
2018-11-05T13:23:15.348Z,21.00
2018-11-05T13:24:15.397Z,19.40
2018-11-05T13:25:15.371Z,21.10
2018-11-05T13:26:15.828Z,19.80
2018-11-05T13:27:15.489Z,20.60